Time;durP1;ratioP1;P1;durP2;ratioP2;P2;SDS_P1;SDS_P2;PMS_P1;PMS_P2;Temp;Humidity;BMP_temperature;BMP_pressure;BME280_temperature;BME280_humidity;BME280_pressure;Samples;Min_cycle;Max_cycle;Signal;HPM_P1;HPM_P2
2022/07/18 00:00:01;;;;;;;1.67;1.57;;;22.30;49.20;;;-142.21;54.25;112049.66;5111865;28;20291;-75
2022/07/18 00:02:28;;;;;;;2.27;1.73;;;22.20;49.20;;;-142.21;54.78;112049.66;5112435;28;20247;-76
2022/07/18 00:04:56;;;;;;;3.27;1.80;;;22.20;49.40;;;-142.21;55.67;112049.66;5112088;28;20231;-75
2022/07/18 00:07:24;;;;;;;2.07;1.70;;;22.10;49.60;;;-142.21;55.50;112049.66;5113052;28;20261;-76
2022/07/18 00:09:51;;;;;;;2.63;1.80;;;22.10;49.60;;;-142.21;55.56;112049.66;5112323;28;20314;-77
2022/07/18 00:12:18;;;;;;;2.10;1.57;;;22.10;49.80;;;-142.21;55.71;112049.66;5112940;28;20279;-76
2022/07/18 00:14:45;;;;;;;2.20;1.57;;;22.10;49.90;;;-142.21;56.67;112049.66;5111895;28;20219;-75
2022/07/18 00:17:13;;;;;;;1.80;1.70;;;22.00;50.10;;;-142.21;57.43;112049.66;5112149;28;20283;-76
2022/07/18 00:19:41;;;;;;;3.87;1.70;;;22.00;50.30;;;-142.21;56.68;112049.66;5112668;28;20231;-75
2022/07/18 00:22:10;;;;;;;2.70;1.50;;;22.00;50.20;;;-142.21;56.42;112049.66;5112642;28;20232;-75
2022/07/18 00:24:38;;;;;;;2.53;1.63;;;21.90;50.00;;;-142.21;57.29;112049.66;5112541;28;20200;-76
2022/07/18 00:27:07;;;;;;;2.43;1.90;;;21.90;50.90;;;-142.21;58.23;112049.66;5111831;28;20203;-76
2022/07/18 00:29:35;;;;;;;2.43;2.00;;;21.90;51.20;;;-142.21;59.21;112049.66;5112946;28;20196;-76
2022/07/18 00:32:03;;;;;;;1.87;1.70;;;21.80;50.50;;;-142.21;59.79;112049.66;5112168;28;20595;-77
2022/07/18 00:34:30;;;;;;;1.80;1.53;;;21.70;50.80;;;-142.21;59.30;112049.66;5112610;28;20200;-76
2022/07/18 00:36:57;;;;;;;2.13;1.77;;;21.70;50.90;;;-142.21;60.16;112049.66;5111866;28;20300;-76
2022/07/18 00:39:26;;;;;;;6.83;2.10;;;21.70;51.00;;;-142.21;60.29;112049.66;5111968;28;20192;-76
2022/07/18 00:41:54;;;;;;;2.27;1.80;;;21.60;51.20;;;-142.21;59.74;112049.66;5111344;28;20227;-75
2022/07/18 00:44:24;;;;;;;2.87;1.70;;;21.60;51.10;;;-142.21;60.21;112049.66;5108265;28;20312;-75
2022/07/18 00:46:53;;;;;;;1.60;1.50;;;21.50;51.20;;;-142.21;61.20;112049.66;5111336;28;20292;-76
2022/07/18 00:49:21;;;;;;;3.73;1.70;;;21.50;51.50;;;-142.21;60.34;112049.66;5112571;28;20302;-76
2022/07/18 00:51:49;;;;;;;1.77;1.63;;;21.50;51.30;;;-142.21;60.53;112049.66;5113124;28;20218;-76
2022/07/18 00:54:17;;;;;;;2.80;2.43;;;21.40;51.40;;;-142.21;61.09;112049.66;5115955;28;20204;-77
2022/07/18 00:56:48;;;;;;;2.03;1.50;;;21.40;51.40;;;-142.21;61.33;112049.66;5115631;28;20192;-77
2022/07/18 00:59:16;;;;;;;4.47;1.90;;;21.40;51.50;;;-142.21;61.45;112049.66;5115734;28;20283;-76
2022/07/18 01:01:42;;;;;;;3.10;1.90;;;21.30;52.20;;;-142.21;61.75;112049.66;5115770;28;20223;-75
2022/07/18 01:04:12;;;;;;;1.77;1.57;;;21.30;51.50;;;-142.21;61.70;112049.66;5115154;28;20280;-76
2022/07/18 01:06:39;;;;;;;1.90;1.63;;;21.20;51.70;;;-142.21;61.78;112049.66;5115445;28;20316;-75
2022/07/18 01:09:07;;;;;;;2.30;1.60;;;21.20;51.80;;;-142.21;62.23;112049.66;5114806;28;20294;-76
2022/07/18 01:11:34;;;;;;;2.40;1.87;;;21.10;52.50;;;-142.21;62.79;112049.66;5115678;28;20202;-76
2022/07/18 01:14:05;;;;;;;2.63;1.60;;;21.10;52.10;;;-142.21;63.42;112049.66;5114879;28;20200;-75
2022/07/18 01:16:32;;;;;;;2.03;1.80;;;21.10;52.30;;;-142.21;64.11;112049.66;5114795;28;20966;-75
2022/07/18 01:19:00;;;;;;;3.37;2.03;;;21.00;52.30;;;-142.21;63.47;112049.66;5114714;28;20283;-77
2022/07/18 01:21:29;;;;;;;1.53;1.43;;;21.00;52.30;;;-142.21;63.92;112049.66;5099637;28;20206;-75
2022/07/18 01:23:56;;;;;;;2.33;1.50;;;20.90;52.40;;;-142.21;64.43;112049.66;5115042;28;20315;-76
2022/07/18 01:26:23;;;;;;;2.53;1.80;;;20.90;52.30;;;-142.21;64.89;112049.66;5115148;28;20287;-76
2022/07/18 01:28:51;;;;;;;2.63;1.80;;;20.90;52.50;;;-142.21;65.28;112049.66;5114914;28;20203;-76
2022/07/18 01:31:18;;;;;;;2.30;1.53;;;20.80;52.70;;;-142.21;65.05;112049.66;5113677;28;20208;-76
2022/07/18 01:33:45;;;;;;;1.53;1.43;;;20.80;52.70;;;-142.21;65.37;112049.66;5115274;28;20219;-75
2022/07/18 01:36:13;;;;;;;2.00;1.73;;;20.80;52.70;;;-142.21;65.49;112049.66;5115225;28;20204;-75
2022/07/18 01:38:41;;;;;;;5.20;1.73;;;20.70;53.00;;;-142.21;66.58;112049.66;5115126;28;20196;-76
2022/07/18 01:41:09;;;;;;;1.50;1.40;;;20.70;53.10;;;-142.21;66.28;112049.66;5114527;28;20524;-76
2022/07/18 01:43:40;;;;;;;2.57;1.70;;;20.60;53.00;;;-142.21;66.18;112049.66;5114982;28;20228;-75
2022/07/18 01:46:09;;;;;;;1.80;1.70;;;20.60;53.10;;;-142.21;66.70;112049.66;5114045;28;20294;-75
2022/07/18 01:48:39;;;;;;;2.87;1.90;;;20.50;53.20;;;-142.21;67.00;112049.66;5106154;28;20284;-76
2022/07/18 01:51:09;;;;;;;1.80;1.63;;;20.40;53.30;;;-142.21;66.77;112049.66;5114456;28;20560;-77
2022/07/18 01:53:37;;;;;;;2.03;1.80;;;20.40;53.20;;;-142.21;66.89;112049.66;5114714;28;20184;-75
2022/07/18 01:56:07;;;;;;;3.40;1.87;;;20.40;53.30;;;-142.21;67.40;112049.66;5114005;28;20196;-76
2022/07/18 01:58:35;;;;;;;2.43;1.70;;;20.40;53.40;;;-142.21;68.02;112049.66;5106212;28;20381;-75
2022/07/18 02:01:02;;;;;;;5.03;1.77;;;20.40;53.50;;;-142.21;68.40;112049.66;5114301;28;20279;-76
2022/07/18 02:03:30;;;;;;;2.13;1.50;;;20.30;53.50;;;-142.21;68.93;112049.66;5113758;28;20306;-76
2022/07/18 02:05:58;;;;;;;2.33;1.93;;;20.30;53.60;;;-142.21;69.77;112049.66;5114083;28;20286;-75
2022/07/18 02:08:26;;;;;;;2.90;1.83;;;20.20;53.90;;;-142.21;70.17;112049.66;5114501;28;20204;-76
2022/07/18 02:10:53;;;;;;;2.07;1.60;;;20.20;53.90;;;-142.21;70.49;112049.66;5113458;28;20232;-76
2022/07/18 02:13:21;;;;;;;2.23;2.03;;;20.20;54.20;;;-142.21;70.77;112049.66;5114249;28;20547;-76
2022/07/18 02:15:48;;;;;;;4.40;1.87;;;20.10;54.10;;;-142.21;71.03;112049.66;5114380;28;20286;-76
2022/07/18 02:18:16;;;;;;;2.20;1.80;;;20.10;54.20;;;-142.21;70.50;112049.66;5114465;28;20198;-75
2022/07/18 02:20:43;;;;;;;2.10;1.90;;;20.10;54.30;;;-142.21;70.34;112049.66;5114305;28;20210;-76
2022/07/18 02:23:10;;;;;;;2.00;1.77;;;20.00;54.20;;;-142.21;70.42;112049.66;5113678;28;20302;-75
2022/07/18 02:25:38;;;;;;;2.20;1.97;;;20.00;54.10;;;-142.21;69.90;112049.66;5114411;28;20227;-76
2022/07/18 02:28:06;;;;;;;2.10;1.90;;;20.00;54.00;;;-142.21;69.41;112049.66;5112889;28;20524;-76
2022/07/18 02:30:34;;;;;;;2.53;1.63;;;20.00;53.90;;;-142.21;69.45;112049.66;5113825;28;20272;-77
2022/07/18 02:33:01;;;;;;;2.27;1.90;;;20.00;53.60;;;-142.21;69.23;112049.66;5113737;28;20275;-76
2022/07/18 02:35:29;;;;;;;3.27;2.13;;;20.00;53.60;;;-142.21;69.04;112049.66;5113798;28;20298;-75
2022/07/18 02:37:58;;;;;;;3.40;1.97;;;20.00;53.60;;;-142.21;68.76;112049.66;5113431;28;20231;-76
2022/07/18 02:40:28;;;;;;;3.23;2.10;;;19.90;53.50;;;-142.21;68.76;112049.66;5114154;28;20269;-75
2022/07/18 02:42:55;;;;;;;2.67;1.80;;;19.90;53.60;;;-142.21;68.45;112049.66;5099629;28;20256;-75
2022/07/18 02:45:23;;;;;;;2.70;1.90;;;19.90;53.50;;;-142.21;68.54;112049.66;5113504;28;20229;-75
2022/07/18 02:47:51;;;;;;;3.73;2.20;;;19.90;54.20;;;-142.21;68.85;112049.66;5113575;28;20245;-76
2022/07/18 02:50:19;;;;;;;3.57;1.80;;;19.90;53.70;;;-142.21;68.92;112049.66;5113037;28;20226;-76
2022/07/18 02:52:47;;;;;;;2.63;1.83;;;19.80;54.30;;;-142.21;68.92;112049.66;5113878;28;20557;-76
2022/07/18 02:55:15;;;;;;;2.53;1.97;;;19.80;53.90;;;-142.21;69.57;112049.66;5113030;28;20287;-76
2022/07/18 02:57:43;;;;;;;3.70;1.90;;;19.80;54.00;;;-142.21;69.42;112049.66;5113372;28;20227;-76
2022/07/18 03:00:14;;;;;;;3.63;1.70;;;19.70;53.90;;;-142.21;69.44;112049.66;5113237;28;20291;-76
2022/07/18 03:02:41;;;;;;;3.20;2.00;;;19.80;54.10;;;-142.21;68.69;112049.66;5113745;28;20200;-75
2022/07/18 03:05:11;;;;;;;3.23;2.03;;;19.80;54.50;;;-142.21;69.04;112049.66;5112872;28;20250;-75
2022/07/18 03:07:41;;;;;;;2.20;1.87;;;19.80;53.90;;;-142.21;69.58;112049.66;5113684;28;20207;-76
2022/07/18 03:10:10;;;;;;;3.63;1.73;;;19.80;54.70;;;-142.21;69.85;112049.66;5112858;28;20274;-75
2022/07/18 03:12:37;;;;;;;4.10;1.80;;;19.80;54.30;;;-142.21;69.74;112049.66;5113278;28;20656;-76
2022/07/18 03:15:06;;;;;;;3.10;2.13;;;19.70;54.20;;;-142.21;69.50;112049.66;5112637;28;20234;-75
2022/07/18 03:17:33;;;;;;;4.60;2.10;;;19.70;54.10;;;-142.21;69.74;112049.66;5112876;28;20250;-75
2022/07/18 03:20:00;;;;;;;3.17;2.00;;;19.80;54.20;;;-142.21;69.96;112049.66;5112527;28;20231;-76
2022/07/18 03:22:29;;;;;;;2.83;2.10;;;19.70;54.30;;;-142.21;70.73;112049.66;5113225;28;20290;-76
2022/07/18 03:24:56;;;;;;;2.73;2.10;;;19.70;54.30;;;-142.21;71.56;112049.66;5111006;28;21101;-76
2022/07/18 03:27:23;;;;;;;7.40;2.20;;;19.70;54.40;;;-142.21;71.97;112049.66;5112882;28;20930;-76
2022/07/18 03:29:50;;;;;;;2.30;2.10;;;19.60;54.60;;;-142.21;72.31;112049.66;5112980;28;20252;-76
2022/07/18 03:32:18;;;;;;;4.50;1.90;;;19.60;54.80;;;-142.21;72.67;112049.66;5111930;28;20838;-76
2022/07/18 03:34:45;;;;;;;2.73;2.07;;;19.60;54.90;;;-142.21;72.12;112049.66;5112735;28;20199;-76
2022/07/18 03:37:12;;;;;;;3.07;2.23;;;19.50;54.90;;;-142.21;72.75;112049.66;5111827;28;20233;-76
2022/07/18 03:39:41;;;;;;;2.70;1.80;;;19.50;54.90;;;-142.21;73.34;112049.66;5112841;28;20202;-76
2022/07/18 03:42:08;;;;;;;2.40;2.20;;;19.40;54.80;;;-142.21;73.74;112049.66;5111958;28;20528;-76
2022/07/18 03:44:35;;;;;;;2.10;1.90;;;19.40;55.20;;;-142.21;74.02;112049.66;5112532;28;20250;-75
2022/07/18 03:47:03;;;;;;;3.57;2.00;;;19.40;55.40;;;-142.21;73.99;112049.66;5111950;28;20204;-75
2022/07/18 03:49:30;;;;;;;5.03;2.00;;;19.30;55.50;;;-142.21;74.59;112049.66;5112659;28;20303;-76
2022/07/18 03:51:57;;;;;;;2.03;1.87;;;19.30;55.50;;;-142.21;74.12;112049.66;5112241;28;20724;-76
2022/07/18 03:54:26;;;;;;;3.70;2.27;;;19.30;55.60;;;-142.21;74.41;112049.66;5112735;28;20195;-76
2022/07/18 03:56:55;;;;;;;2.07;1.80;;;19.30;55.60;;;-142.21;74.52;112049.66;5112878;28;20200;-76
2022/07/18 03:59:22;;;;;;;2.10;1.80;;;19.30;55.80;;;-142.21;73.15;112049.66;5113046;28;20203;-75
2022/07/18 04:01:50;;;;;;;3.20;1.93;;;19.30;55.50;;;-142.21;72.88;112049.66;5112892;28;20282;-76
2022/07/18 04:04:17;;;;;;;4.13;1.80;;;19.40;55.50;;;-142.21;72.39;112049.66;5112332;28;20589;-75
2022/07/18 04:06:44;;;;;;;3.83;2.00;;;19.40;55.20;;;-142.21;72.84;112049.66;5112258;28;20690;-76
2022/07/18 04:09:11;;;;;;;3.00;2.07;;;19.40;55.20;;;-142.21;73.10;112049.66;5111657;28;20227;-76
2022/07/18 04:11:38;;;;;;;3.97;2.00;;;19.50;55.50;;;-142.21;73.83;112049.66;5112694;28;20279;-77
2022/07/18 04:14:07;;;;;;;4.50;2.33;;;19.50;55.70;;;-142.21;74.39;112049.66;5112192;28;20246;-76
2022/07/18 04:16:34;;;;;;;4.93;2.30;;;19.50;56.40;;;-142.21;74.51;112049.66;5112224;28;20206;-76
2022/07/18 04:19:01;;;;;;;4.23;2.50;;;19.50;55.80;;;-142.21;75.29;112049.66;5112216;28;20283;-76
2022/07/18 04:21:28;;;;;;;5.67;2.87;;;19.50;56.10;;;-142.21;74.23;112049.66;5112096;28;20888;-76
2022/07/18 04:23:57;;;;;;;6.20;2.03;;;19.50;55.70;;;-142.21;73.34;112049.66;5111405;28;20289;-76
2022/07/18 04:26:24;;;;;;;2.23;1.70;;;19.50;55.40;;;-142.21;73.27;112049.66;5113079;28;20238;-76
2022/07/18 04:28:51;;;;;;;2.63;1.93;;;19.60;55.60;;;-142.21;72.80;112049.66;5116711;28;20212;-76
2022/07/18 04:31:20;;;;;;;1.80;1.70;;;19.60;55.80;;;-142.21;70.04;112049.66;5115463;28;20290;-76
2022/07/18 04:33:47;;;;;;;4.63;2.03;;;19.70;54.50;;;-142.21;73.50;112049.66;5098305;28;20256;-76
2022/07/18 04:36:15;;;;;;;4.17;1.97;;;19.70;55.60;;;-142.21;72.86;112049.66;5115553;28;20204;-76
2022/07/18 04:38:42;;;;;;;5.70;2.17;;;19.70;55.90;;;-142.21;74.73;112049.66;5116101;28;20239;-76
2022/07/18 04:41:09;;;;;;;7.23;3.27;;;19.70;55.80;;;-142.21;74.70;112049.66;5115478;28;20698;-76
2022/07/18 04:43:36;;;;;;;5.83;2.60;;;19.80;55.90;;;-142.21;75.01;112049.66;5115687;28;20287;-76
2022/07/18 04:46:03;;;;;;;3.67;2.27;;;19.80;56.10;;;-142.21;74.94;112049.66;5097312;28;20288;-77
2022/07/18 04:48:32;;;;;;;7.63;2.77;;;19.90;55.90;;;-142.21;76.16;112049.66;5116037;28;20520;-76
2022/07/18 04:50:59;;;;;;;4.97;2.10;;;19.90;56.30;;;-142.21;76.83;112049.66;5115047;28;20294;-77
2022/07/18 04:53:26;;;;;;;4.23;2.47;;;19.90;56.80;;;-142.21;77.16;112049.66;5115975;28;20206;-76
2022/07/18 04:55:54;;;;;;;3.67;2.53;;;19.90;56.70;;;-142.21;75.97;112049.66;5116241;28;20705;-76
2022/07/18 04:58:21;;;;;;;5.30;2.10;;;20.00;56.40;;;-142.21;74.87;112049.66;5115145;28;20239;-77
2022/07/18 05:00:48;;;;;;;5.03;2.90;;;20.00;56.00;;;-142.21;73.57;112049.66;5115386;28;20648;-75
2022/07/18 05:03:16;;;;;;;6.60;2.57;;;20.10;55.70;;;-142.21;74.19;112049.66;5115188;28;20231;-75
2022/07/18 05:05:44;;;;;;;2.90;2.30;;;20.20;55.60;;;-142.21;71.83;112049.66;5115517;28;20635;-76
2022/07/18 05:08:13;;;;;;;4.10;2.00;;;20.20;55.30;;;-142.21;71.04;112049.66;5114548;28;20202;-75
2022/07/18 05:10:41;;;;;;;2.20;1.83;;;20.30;54.90;;;-142.21;70.31;112049.66;5115422;28;20266;-75
2022/07/18 05:13:08;;;;;;;2.00;1.73;;;20.30;54.70;;;-142.21;70.02;112049.66;5114809;28;20208;-75
2022/07/18 05:15:39;;;;;;;4.80;1.80;;;20.50;54.60;;;-142.21;68.93;112049.66;5115525;28;20299;-75
2022/07/18 05:18:08;;;;;;;5.43;2.20;;;20.50;54.80;;;-142.21;69.36;112049.66;5114849;28;20696;-76
2022/07/18 05:20:36;;;;;;;4.13;2.10;;;20.60;54.20;;;-142.21;70.03;112049.66;5115056;28;20195;-76
2022/07/18 05:23:05;;;;;;;3.80;2.07;;;20.70;54.50;;;-142.21;70.00;112049.66;5114927;28;20204;-76
2022/07/18 05:25:32;;;;;;;3.30;1.87;;;20.70;54.30;;;-142.21;68.29;112049.66;5115137;28;20255;-73
2022/07/18 05:27:59;;;;;;;1.97;1.67;;;20.80;54.10;;;-142.21;67.08;112049.66;5115336;28;20203;-73
2022/07/18 05:30:28;;;;;;;4.30;1.87;;;20.90;53.90;;;-142.21;66.53;112049.66;5115107;28;20226;-73
2022/07/18 05:32:55;;;;;;;3.90;2.27;;;20.90;53.60;;;-142.21;63.11;112049.66;5115085;28;20249;-73
2022/07/18 05:35:23;;;;;;;3.07;1.93;;;21.10;52.70;;;-142.21;63.15;112049.66;5114138;28;20694;-75
2022/07/18 05:37:51;;;;;;;1.87;1.60;;;21.10;52.60;;;-142.21;63.44;112049.66;5113002;28;20192;-74
2022/07/18 05:40:22;;;;;;;3.90;2.10;;;21.20;52.60;;;-142.21;64.42;112049.66;5113365;28;20219;-74
2022/07/18 05:42:50;;;;;;;5.33;2.20;;;21.30;52.90;;;-142.21;64.67;112049.66;5114449;28;20701;-75
2022/07/18 05:45:18;;;;;;;2.27;2.07;;;21.40;52.90;;;-142.21;63.41;112049.66;5114309;28;20333;-74
2022/07/18 05:47:45;;;;;;;3.10;2.33;;;21.40;52.50;;;-142.21;63.75;112049.66;5114755;28;20265;-79
2022/07/18 05:50:13;;;;;;;4.63;2.10;;;21.50;52.70;;;-142.21;63.89;112049.66;5095959;28;20787;-78
2022/07/18 05:52:40;;;;;;;2.20;1.70;;;21.60;52.70;;;-142.21;64.19;112049.66;5114846;28;20626;-77
2022/07/18 05:55:09;;;;;;;3.40;1.80;;;21.60;52.70;;;-142.21;63.89;112049.66;5096084;28;20235;-77
2022/07/18 05:57:38;;;;;;;2.10;1.70;;;21.60;52.60;;;-142.21;63.08;112049.66;5096714;28;20272;-76
2022/07/18 06:00:09;;;;;;;3.33;1.70;;;21.80;52.60;;;-142.21;61.32;112049.66;5114464;28;20257;-77
2022/07/18 06:02:37;;;;;;;3.17;1.60;;;21.80;52.00;;;-142.21;61.23;112049.66;5114770;28;20528;-78
2022/07/18 06:05:05;;;;;;;1.83;1.70;;;21.90;52.00;;;-142.21;58.94;112049.66;5114234;28;20591;-79
2022/07/18 06:07:33;;;;;;;3.53;1.97;;;22.00;51.40;;;-142.21;59.01;112049.66;5114870;28;20620;-76
2022/07/18 06:10:00;;;;;;;2.73;1.53;;;22.00;51.30;;;-142.21;58.68;112049.66;5096604;28;20322;-77
2022/07/18 06:12:31;;;;;;;4.03;1.90;;;22.20;51.30;;;-142.21;59.03;112049.66;5115330;28;20213;-79
2022/07/18 06:15:00;;;;;;;1.73;1.50;;;22.20;51.30;;;-142.21;59.12;112049.66;5114865;28;20207;-76
2022/07/18 06:17:28;;;;;;;2.23;1.47;;;22.30;51.10;;;-142.21;58.44;112049.66;5114968;28;20207;-77
2022/07/18 06:19:56;;;;;;;3.17;1.70;;;22.40;51.10;;;-142.21;56.36;112049.66;5114120;28;20210;-78
2022/07/18 06:22:24;;;;;;;3.07;1.60;;;22.50;50.70;;;-142.21;54.93;112049.66;5114197;28;20204;-78
2022/07/18 06:24:52;;;;;;;3.37;1.50;;;22.60;50.10;;;-142.21;55.51;112049.66;5114173;28;20266;-78
2022/07/18 06:27:19;;;;;;;4.67;2.10;;;22.70;50.20;;;-142.21;55.60;112049.66;5113811;28;20215;-78
2022/07/18 06:29:46;;;;;;;3.00;1.70;;;22.80;50.10;;;-142.21;55.20;112049.66;5114064;28;20296;-80
2022/07/18 06:32:14;;;;;;;2.60;1.40;;;22.90;50.00;;;-142.21;53.50;112049.66;5113643;28;20292;-78
2022/07/18 06:34:41;;;;;;;3.57;1.80;;;23.00;49.60;;;-142.21;52.24;112049.66;5114126;28;20231;-79
2022/07/18 06:37:09;;;;;;;2.70;1.30;;;23.00;49.00;;;-142.21;50.74;112049.66;5113645;28;20299;-77
2022/07/18 06:39:36;;;;;;;3.23;1.80;;;23.10;48.70;;;-142.21;50.50;112049.66;5114403;28;20303;-77
2022/07/18 06:42:03;;;;;;;2.33;1.40;;;23.20;48.50;;;-142.21;51.09;112049.66;5114252;28;20215;-77
2022/07/18 06:44:31;;;;;;;1.70;1.60;;;23.30;48.60;;;-142.21;50.19;112049.66;5113576;28;20229;-77
2022/07/18 06:46:59;;;;;;;3.60;1.80;;;23.40;48.50;;;-142.21;48.85;112049.66;5113876;28;20732;-78
2022/07/18 06:49:27;;;;;;;5.30;1.80;;;23.50;47.90;;;-142.21;47.97;112049.66;5113204;28;20218;-78
2022/07/18 06:51:54;;;;;;;2.93;1.53;;;23.50;47.40;;;-142.21;46.72;112049.66;5113557;28;20238;-80
2022/07/18 06:54:27;;;;;;;1.50;1.40;;;23.60;47.00;;;-142.21;46.00;112049.66;5113597;28;20207;-77
2022/07/18 06:56:54;;;;;;;1.57;1.37;;;23.70;46.60;;;-142.21;45.22;112049.66;5114101;28;20656;-79
2022/07/18 06:59:22;;;;;;;1.70;1.43;;;23.80;46.30;;;-142.21;45.40;112049.66;5113344;28;20278;-80
2022/07/18 07:01:49;;;;;;;1.60;1.40;;;23.90;46.40;;;-142.21;44.85;112049.66;5113739;28;20232;-79
2022/07/18 07:04:16;;;;;;;1.47;1.30;;;24.00;46.00;;;-142.21;45.11;112049.66;5113018;28;20227;-77
2022/07/18 07:06:45;;;;;;;1.77;1.50;;;24.10;46.10;;;-142.21;44.72;112049.66;5113692;28;20290;-79
2022/07/18 07:09:13;;;;;;;1.50;1.37;;;24.20;45.70;;;-142.21;44.51;112049.66;5112841;28;20199;-77
2022/07/18 07:11:40;;;;;;;1.80;1.40;;;24.30;45.70;;;-142.21;44.50;112049.66;5113414;28;20651;-80
2022/07/18 07:14:07;;;;;;;1.60;1.47;;;24.40;45.60;;;-142.21;43.85;112049.66;5113402;28;20217;-78
2022/07/18 07:16:35;;;;;;;4.43;1.50;;;24.40;45.50;;;-142.21;44.21;112049.66;5113733;28;20256;-77
2022/07/18 07:19:02;;;;;;;1.83;1.53;;;24.60;45.60;;;-142.21;43.45;112049.66;5113451;28;20286;-80
2022/07/18 07:21:29;;;;;;;3.57;1.50;;;24.70;45.10;;;-142.21;42.73;112049.66;5113065;28;20299;-77
2022/07/18 07:23:58;;;;;;;4.03;1.83;;;24.80;44.60;;;-142.21;42.77;112049.66;5113136;28;20208;-80
2022/07/18 07:26:25;;;;;;;1.77;1.50;;;24.90;44.60;;;-142.21;42.84;112049.66;5113088;28;20310;-78
2022/07/18 07:28:52;;;;;;;3.07;1.80;;;25.00;44.60;;;-142.21;42.85;112049.66;5112942;28;20235;-78
2022/07/18 07:31:19;;;;;;;1.50;1.40;;;25.10;44.60;;;-142.21;42.17;112049.66;5112636;28;20203;-79
2022/07/18 07:33:46;;;;;;;2.17;1.50;;;25.20;44.50;;;-142.21;41.76;112049.66;5113439;28;20279;-79
2022/07/18 07:36:13;;;;;;;2.73;1.57;;;25.30;44.20;;;-142.21;41.33;112049.66;5113114;28;20668;-79
2022/07/18 07:38:41;;;;;;;2.37;1.53;;;25.40;43.90;;;-142.21;40.64;112049.66;5113268;28;20238;-78
2022/07/18 07:41:09;;;;;;;2.17;1.50;;;25.50;43.30;;;-142.21;40.89;112049.66;5112320;28;20664;-80
2022/07/18 07:43:38;;;;;;;1.63;1.27;;;25.60;43.40;;;-142.21;40.30;112049.66;5113003;28;20294;-80
2022/07/18 07:46:06;;;;;;;1.83;1.73;;;25.80;43.00;;;-142.21;40.83;112049.66;5112820;28;20219;-77
2022/07/18 07:48:33;;;;;;;1.73;1.33;;;25.80;43.20;;;-142.21;40.86;112049.66;5086588;28;20204;-79
2022/07/18 07:51:03;;;;;;;1.63;1.37;;;26.00;43.20;;;-142.21;40.67;112049.66;5092396;28;20208;-77
2022/07/18 07:53:30;;;;;;;1.80;1.33;;;26.10;43.10;;;-142.21;40.73;112049.66;5092117;28;20205;-77
2022/07/18 07:55:58;;;;;;;2.60;1.40;;;26.20;43.20;;;-142.21;39.35;112049.66;5092905;28;20251;-80
2022/07/18 07:58:26;;;;;;;2.93;1.50;;;26.30;42.60;;;-142.21;39.65;112049.66;5103970;28;20226;-77
2022/07/18 08:00:54;;;;;;;1.63;1.30;;;26.40;42.30;;;-142.21;39.53;112049.66;5112422;28;20714;-81
2022/07/18 08:03:21;;;;;;;2.23;1.30;;;26.50;42.00;;;-142.21;39.38;112049.66;5117064;28;20250;-78
2022/07/18 08:05:50;;;;;;;1.97;1.57;;;26.60;42.20;;;-142.21;39.42;112049.66;5117058;28;20227;-80
2022/07/18 08:08:19;;;;;;;1.73;1.60;;;26.70;41.80;;;-142.21;38.60;112049.66;5116429;28;20625;-80
2022/07/18 08:10:47;;;;;;;1.70;1.40;;;26.70;41.50;;;-142.21;39.35;112049.66;5116633;28;20769;-80
2022/07/18 08:13:15;;;;;;;1.40;1.30;;;26.90;42.10;;;-142.21;38.12;112049.66;5116217;28;20196;-78
2022/07/18 08:15:43;;;;;;;2.60;1.43;;;26.90;41.20;;;-142.21;38.80;112049.66;5116626;28;20291;-79
2022/07/18 08:18:10;;;;;;;3.17;1.43;;;27.10;41.40;;;-142.21;38.91;112049.66;5116743;28;20290;-79
2022/07/18 08:20:38;;;;;;;2.37;2.00;;;27.10;41.70;;;-142.21;37.87;112049.66;5117145;28;20200;-78
2022/07/18 08:23:08;;;;;;;2.93;1.50;;;27.20;40.80;;;-142.21;38.06;112049.66;5116749;28;20203;-79
2022/07/18 08:25:38;;;;;;;2.07;1.87;;;27.40;41.00;;;-142.21;38.10;112049.66;5116713;28;20259;-79
2022/07/18 08:28:06;;;;;;;3.33;1.80;;;27.50;41.00;;;-142.21;37.90;112049.66;5116894;28;20199;-79
2022/07/18 08:30:35;;;;;;;1.63;1.53;;;27.60;40.80;;;-142.21;37.06;112049.66;5116073;28;20602;-82
2022/07/18 08:33:04;;;;;;;1.43;1.33;;;27.70;40.10;;;-142.21;37.74;112049.66;5116278;28;20212;-79
2022/07/18 08:35:33;;;;;;;2.50;1.40;;;27.70;40.50;;;-142.21;36.60;112049.66;5115716;28;20239;-79
2022/07/18 08:38:01;;;;;;;2.03;1.60;;;27.90;39.90;;;-142.21;37.41;112049.66;5098458;28;20241;-81
2022/07/18 08:40:29;;;;;;;1.50;1.40;;;28.00;40.30;;;-142.21;37.31;112049.66;5115651;28;20296;-78
2022/07/18 08:42:59;;;;;;;2.30;1.40;;;28.10;40.20;;;-142.21;36.99;112049.66;5116223;28;20237;-78
2022/07/18 08:45:27;;;;;;;1.53;1.43;;;28.20;40.20;;;-142.21;36.91;112049.66;5115599;28;20309;-78
2022/07/18 08:47:55;;;;;;;1.67;1.30;;;28.30;40.00;;;-142.21;36.47;112049.66;5116277;28;20340;-78
2022/07/18 08:50:26;;;;;;;2.53;1.43;;;28.50;39.50;;;-142.21;37.53;112049.66;5115691;28;20263;-81
2022/07/18 08:52:54;;;;;;;2.30;1.40;;;28.60;40.30;;;-142.21;37.98;112049.66;5116335;28;20197;-78
2022/07/18 08:55:22;;;;;;;2.13;1.70;;;28.70;40.50;;;-142.21;37.09;112049.66;5115638;28;20287;-78
2022/07/18 08:57:49;;;;;;;3.43;1.83;;;28.80;40.00;;;-142.21;37.18;112049.66;5115904;28;20256;-80
2022/07/18 09:00:17;;;;;;;2.43;1.37;;;28.90;40.20;;;-142.21;36.67;112049.66;5097347;28;20294;-78
2022/07/18 09:02:45;;;;;;;1.70;1.60;;;29.00;39.50;;;-142.21;36.09;112049.66;5115837;28;20238;-78
2022/07/18 09:05:20;;;;;;;2.77;1.63;;;29.10;39.00;;;-142.21;36.14;112049.66;5115100;28;20264;-77
2022/07/18 09:07:49;;;;;;;1.57;1.43;;;29.20;38.70;;;-142.21;36.22;112049.66;5115723;28;20238;-79
2022/07/18 09:10:17;;;;;;;2.40;1.70;;;29.30;38.60;;;-142.21;34.71;112049.66;5114877;28;20235;-78
2022/07/18 09:12:58;;;;;;;1.90;1.80;;;29.40;38.20;;;-142.21;34.73;112049.66;5115087;28;20233;-79
2022/07/18 09:15:26;;;;;;;4.23;2.00;;;29.60;37.80;;;-142.21;34.96;112049.66;5115384;28;20618;-80
2022/07/18 09:17:57;;;;;;;1.63;1.53;;;29.70;38.10;;;-142.21;35.92;112049.66;5115497;28;20693;-80
2022/07/18 09:20:25;;;;;;;1.67;1.40;;;29.80;38.50;;;-142.21;34.47;112049.66;5115100;28;20190;-79
2022/07/18 09:22:53;;;;;;;2.03;1.50;;;29.90;37.60;;;-142.21;35.01;112049.66;5115439;28;20297;-79
2022/07/18 09:25:24;;;;;;;2.90;1.60;;;30.10;38.20;;;-142.21;34.80;112049.66;5114859;28;20229;-78
2022/07/18 09:27:54;;;;;;;2.63;1.67;;;30.20;37.90;;;-142.21;34.91;112049.66;5115343;28;20183;-78
2022/07/18 09:30:28;;;;;;;3.23;1.70;;;30.30;37.70;;;-142.21;34.58;112049.66;5115054;28;20293;-79
2022/07/18 09:33:07;;;;;;;1.70;1.60;;;30.40;37.70;;;-142.21;34.40;112049.66;5115454;28;20284;-78
2022/07/18 09:35:37;;;;;;;5.43;1.90;;;30.50;37.80;;;-142.21;33.12;112049.66;5115020;28;20183;-77
2022/07/18 09:38:08;;;;;;;1.33;1.23;;;30.60;36.70;;;-142.21;33.87;112049.66;5115465;28;20298;-79
2022/07/18 09:40:38;;;;;;;2.57;1.50;;;30.80;37.00;;;-142.21;33.92;112049.66;5114900;28;20183;-79
2022/07/18 09:43:08;;;;;;;1.90;1.80;;;30.80;37.10;;;-142.21;33.20;112049.66;5114736;28;20293;-79
2022/07/18 09:45:42;;;;;;;2.07;1.60;;;31.00;36.60;;;-142.21;33.78;112049.66;5114721;28;20284;-78
2022/07/18 09:48:12;;;;;;;2.63;1.70;;;31.10;37.00;;;-142.21;31.57;112049.66;5115418;28;20328;-80
2022/07/18 09:50:42;;;;;;;3.10;1.60;;;31.20;35.20;;;-142.21;33.17;112049.66;5114707;28;20262;-78
2022/07/18 09:53:15;;;;;;;2.10;1.50;;;31.30;36.20;;;-142.21;33.84;112049.66;5114637;28;20290;-80
2022/07/18 09:55:48;;;;;;;1.73;1.53;;;31.40;36.80;;;-142.21;31.95;112049.66;5096825;28;20191;-79
2022/07/18 09:58:19;;;;;;;3.30;1.70;;;31.50;35.00;;;-142.21;32.66;112049.66;5114450;28;20201;-79
2022/07/18 10:00:47;;;;;;;2.37;1.90;;;31.70;36.00;;;-142.21;32.58;112049.66;5114780;28;20184;-77
2022/07/18 10:03:15;;;;;;;5.03;1.80;;;31.70;35.70;;;-142.21;32.44;112049.66;5114014;28;20208;-78